Time;durP1;ratioP1;P1;durP2;ratioP2;P2;SDS_P1;SDS_P2;PMS_P1;PMS_P2;Temp;Humidity;BMP_temperature;BMP_pressure;BME280_temperature;BME280_humidity;BME280_pressure;Samples;Min_cycle;Max_cycle;Signal;HPM_P1;HPM_P2
2022/09/11 00:00:26;;;;;;;;;;;;;;;20.75;82.68;100435.66;5135507;27;19933;-82
2022/09/11 00:02:51;;;;;;;;;;;;;;;20.66;82.80;100434.31;5135563;27;19922;-81
2022/09/11 00:05:16;;;;;;;;;;;;;;;20.61;82.59;100436.94;5135067;27;20236;-82
2022/09/11 00:07:42;;;;;;;;;;;;;;;20.61;82.41;100445.94;5135636;27;19923;-82
2022/09/11 00:10:07;;;;;;;;;;;;;;;20.58;82.58;100435.50;5135146;27;19949;-82
2022/09/11 00:12:32;;;;;;;;;;;;;;;20.52;82.94;100436.38;5134690;27;19911;-81
2022/09/11 00:14:59;;;;;;;;;;;;;;;20.45;82.85;100431.00;5135407;27;19911;-82
2022/09/11 00:17:24;;;;;;;;;;;;;;;20.40;82.89;100436.34;5134667;27;19964;-82
2022/09/11 00:19:49;;;;;;;;;;;;;;;20.37;83.22;100433.22;5134639;27;19961;-82
2022/09/11 00:22:14;;;;;;;;;;;;;;;20.39;83.08;100437.41;5134889;27;20009;-82
2022/09/11 00:24:40;;;;;;;;;;;;;;;20.23;84.38;100444.34;5134670;27;19915;-82
2022/09/11 00:27:05;;;;;;;;;;;;;;;20.36;83.90;100446.06;5135128;27;20438;-82
2022/09/11 00:29:31;;;;;;;;;;;;;;;20.33;84.09;100448.44;5134715;27;19911;-81
2022/09/11 00:31:56;;;;;;;;;;;;;;;20.21;84.51;100451.09;5134659;27;20367;-81
2022/09/11 00:34:22;;;;;;;;;;;;;;;20.26;84.40;100453.97;5134638;27;19954;-82
2022/09/11 00:36:47;;;;;;;;;;;;;;;20.14;84.79;100436.72;5134439;27;19919;-82
2022/09/11 00:39:13;;;;;;;;;;;;;;;20.07;85.14;100439.50;5134105;27;19954;-81
2022/09/11 00:41:39;;;;;;;;;;;;;;;20.02;85.87;100448.38;5134132;27;20403;-82
2022/09/11 00:44:04;;;;;;;;;;;;;;;20.13;85.44;100448.66;5133995;27;19916;-81
2022/09/11 00:46:33;;;;;;;;;;;;;;;20.05;85.62;100446.25;5134983;27;20052;-81
2022/09/11 00:48:58;;;;;;;;;;;;;;;20.12;85.57;100445.13;5135805;27;19912;-80
2022/09/11 00:51:25;;;;;;;;;;;;;;;20.11;85.39;100448.06;5136765;27;19911;-81
2022/09/11 00:53:50;;;;;;;;;;;;;;;20.00;85.71;100450.50;5137559;27;19922;-82
2022/09/11 00:56:15;;;;;;;;;;;;;;;19.98;86.08;100446.34;5115772;27;19911;-80
2022/09/11 00:58:41;;;;;;;;;;;;;;;19.94;86.14;100443.22;5133800;27;19930;-81
2022/09/11 01:01:07;;;;;;;;;;;;;;;19.94;86.15;100439.66;5134589;27;19915;-81
2022/09/11 01:03:33;;;;;;;;;;;;;;;19.92;86.08;100445.34;5115634;27;19965;-81
2022/09/11 01:05:58;;;;;;;;;;;;;;;19.93;85.77;100436.13;5133688;27;20336;-81
2022/09/11 01:08:23;;;;;;;;;;;;;;;20.00;85.57;100441.50;5115803;27;20008;-81
2022/09/11 01:10:49;;;;;;;;;;;;;;;20.03;85.43;100443.75;5133652;27;19917;-81
2022/09/11 01:13:32;;;;;;;;;;;;;;;19.82;86.44;100437.69;5133210;27;20002;-81
2022/09/11 01:16:02;;;;;;;;;;;;;;;19.82;86.67;100436.88;5133375;27;19922;-80
2022/09/11 01:18:51;;;;;;;;;;;;;;;19.87;86.32;100423.38;5133006;27;19912;-81
2022/09/11 01:21:19;;;;;;;;;;;;;;;19.83;86.49;100405.81;5119352;27;20381;-81
2022/09/11 01:23:44;;;;;;;;;;;;;;;19.76;86.85;100413.22;5133099;27;19911;-81
2022/09/11 01:26:31;;;;;;;;;;;;;;;19.75;86.67;100415.13;5133082;27;20410;-83
2022/09/11 01:29:16;;;;;;;;;;;;;;;19.75;86.47;100420.56;5133199;27;19961;-81
2022/09/11 01:31:45;;;;;;;;;;;;;;;19.75;86.46;100420.56;5133409;27;19918;-82
2022/09/11 01:34:21;;;;;;;;;;;;;;;19.77;86.39;100431.25;5114962;27;20406;-82
2022/09/11 01:36:52;;;;;;;;;;;;;;;19.74;86.25;100427.09;5114544;27;19958;-82
2022/09/11 01:39:17;;;;;;;;;;;;;;;19.73;86.04;100432.78;5115017;27;20391;-82
2022/09/11 01:41:47;;;;;;;;;;;;;;;19.76;85.75;100444.06;5114496;27;19954;-82
2022/09/11 01:44:14;;;;;;;;;;;;;;;19.88;85.00;100427.78;5132854;27;20322;-82
2022/09/11 01:46:41;;;;;;;;;;;;;;;19.85;85.10;100416.47;5114016;27;19954;-81
2022/09/11 01:49:11;;;;;;;;;;;;;;;19.88;85.15;100408.69;5132420;27;19918;-81
2022/09/11 01:51:37;;;;;;;;;;;;;;;19.86;85.61;100409.97;5114328;27;20401;-81
2022/09/11 01:54:02;;;;;;;;;;;;;;;19.91;85.05;100419.13;5132533;27;20043;-81
2022/09/11 01:56:35;;;;;;;;;;;;;;;19.95;85.10;100419.53;5114181;27;20009;-82
2022/09/11 01:59:02;;;;;;;;;;;;;;;19.97;84.99;100411.91;5070749;27;1178189;-81
2022/09/11 02:01:34;;;;;;;;;;;;;;;19.96;84.58;100410.25;5113141;27;19915;-81
2022/09/11 02:04:06;;;;;;;;;;;;;;;20.00;84.43;100406.03;5114032;27;19930;-81
2022/09/11 02:06:36;;;;;;;;;;;;;;;20.11;83.98;100407.13;5114325;27;20318;-81
2022/09/11 02:09:05;;;;;;;;;;;;;;;20.06;84.29;100394.16;5132390;27;20008;-81
2022/09/11 02:11:30;;;;;;;;;;;;;;;20.01;84.64;100403.03;5132462;27;19907;-81
2022/09/11 02:13:57;;;;;;;;;;;;;;;20.00;84.87;100401.38;5113607;27;19918;-81
2022/09/11 02:16:41;;;;;;;;;;;;;;;20.06;84.43;100398.81;5113980;27;19911;-81
2022/09/11 02:19:10;;;;;;;;;;;;;;;20.10;84.09;100400.00;5132237;27;19911;-83
2022/09/11 02:21:36;;;;;;;;;;;;;;;20.18;83.61;100405.13;5132307;27;19912;-81
2022/09/11 02:24:02;;;;;;;;;;;;;;;20.11;83.94;100397.06;5114066;28;19965;-81
2022/09/11 02:26:28;;;;;;;;;;;;;;;20.20;83.90;100405.75;5113928;27;20347;-81
2022/09/11 02:28:53;;;;;;;;;;;;;;;20.18;83.75;100410.59;5113768;27;19915;-81
2022/09/11 02:31:19;;;;;;;;;;;;;;;20.16;83.07;100410.03;5132147;27;20447;-81
2022/09/11 02:33:44;;;;;;;;;;;;;;;20.20;83.01;100400.28;5113744;27;20306;-81
2022/09/11 02:36:28;;;;;;;;;;;;;;;20.26;82.76;100393.91;5113415;28;19919;-80
2022/09/11 02:38:56;;;;;;;;;;;;;;;20.14;83.11;100396.59;5131830;27;19968;-81
2022/09/11 02:41:31;;;;;;;;;;;;;;;20.19;83.09;100387.72;5131522;27;20378;-81
2022/09/11 02:44:03;;;;;;;;;;;;;;;20.30;82.65;100389.66;5113446;28;19911;-81
2022/09/11 02:46:37;;;;;;;;;;;;;;;20.27;83.11;100395.56;5113771;28;20348;-81
2022/09/11 02:49:12;;;;;;;;;;;;;;;20.27;82.91;100392.84;5113580;28;19955;-81
2022/09/11 02:51:41;;;;;;;;;;;;;;;20.34;82.49;100400.94;5113367;28;19926;-80
2022/09/11 02:54:16;;;;;;;;;;;;;;;20.36;82.08;100388.72;5131708;28;20018;-81
2022/09/11 02:56:44;;;;;;;;;;;;;;;20.35;82.08;100389.78;5131907;28;19957;-81
2022/09/11 02:59:16;;;;;;;;;;;;;;;20.40;81.83;100389.94;5098628;27;19945;-81
2022/09/11 03:01:54;;;;;;;;;;;;;;;20.38;81.94;100386.59;5117684;27;20011;-82
2022/09/11 03:04:21;;;;;;;;;;;;;;;20.29;82.13;100404.38;5135748;27;19912;-80
2022/09/11 03:06:47;;;;;;;;;;;;;;;20.35;81.97;100399.91;5136261;27;19912;-82
2022/09/11 03:09:12;;;;;;;;;;;;;;;20.27;82.28;100401.03;5117463;27;20014;-82
2022/09/11 03:11:38;;;;;;;;;;;;;;;20.28;82.09;100402.72;5135865;27;20101;-81
2022/09/11 03:14:03;;;;;;;;;;;;;;;20.15;82.56;100402.88;5137879;27;19911;-80
2022/09/11 03:16:28;;;;;;;;;;;;;;;20.24;82.25;100413.25;5124479;27;20403;-80
2022/09/11 03:18:54;;;;;;;;;;;;;;;20.06;82.96;100409.72;5141726;27;19919;-80
2022/09/11 03:21:19;;;;;;;;;;;;;;;19.99;83.29;100427.03;5118773;27;19915;-80
2022/09/11 03:23:44;;;;;;;;;;;;;;;20.04;83.25;100423.56;5136138;27;20001;-80
2022/09/11 03:26:10;;;;;;;;;;;;;;;20.03;82.96;100417.28;5135806;27;19969;-80
2022/09/11 03:28:35;;;;;;;;;;;;;;;19.97;83.76;100420.97;5135509;27;20006;-81
2022/09/11 03:31:00;;;;;;;;;;;;;;;20.07;83.37;100416.84;5135379;27;20363;-81
2022/09/11 03:33:26;;;;;;;;;;;;;;;20.07;83.28;100422.31;5135505;27;19919;-81
2022/09/11 03:35:52;;;;;;;;;;;;;;;20.04;83.20;100423.56;5135471;27;20006;-80
2022/09/11 03:38:17;;;;;;;;;;;;;;;20.06;83.40;100423.34;5135854;27;20380;-80
2022/09/11 03:40:43;;;;;;;;;;;;;;;20.08;82.77;100429.44;5116870;27;19915;-80
2022/09/11 03:43:09;;;;;;;;;;;;;;;20.17;82.36;100428.06;5135573;27;19911;-80
2022/09/11 03:45:34;;;;;;;;;;;;;;;20.03;82.81;100428.22;5116864;27;20383;-80
2022/09/11 03:48:00;;;;;;;;;;;;;;;20.09;82.55;100426.47;5135261;27;19918;-81
2022/09/11 03:50:25;;;;;;;;;;;;;;;20.05;82.71;100435.34;5135573;27;19918;-81
2022/09/11 03:52:50;;;;;;;;;;;;;;;19.94;82.99;100435.03;5135284;27;19915;-81
2022/09/11 03:55:16;;;;;;;;;;;;;;;19.87;83.40;100434.28;5135390;27;19918;-81
2022/09/11 03:57:41;;;;;;;;;;;;;;;19.87;83.43;100428.81;5135070;27;19983;-81
2022/09/11 04:00:06;;;;;;;;;;;;;;;20.00;82.99;100431.41;5135030;27;19915;-81
2022/09/11 04:02:32;;;;;;;;;;;;;;;20.03;82.44;100428.22;5134594;27;20072;-79
2022/09/11 04:04:57;;;;;;;;;;;;;;;19.96;82.80;100426.63;5135472;27;20259;-81
2022/09/11 04:07:22;;;;;;;;;;;;;;;20.00;82.68;100433.31;5137724;27;19911;-80
2022/09/11 04:09:48;;;;;;;;;;;;;;;19.97;82.64;100429.16;5137949;27;19961;-82
2022/09/11 04:12:13;;;;;;;;;;;;;;;19.99;82.49;100423.44;5135722;27;19915;-80
2022/09/11 04:14:38;;;;;;;;;;;;;;;19.98;82.43;100428.06;5135328;27;19912;-81
2022/09/11 04:17:05;;;;;;;;;;;;;;;19.99;82.13;100429.75;5134472;27;19911;-80
2022/09/11 04:19:30;;;;;;;;;;;;;;;20.02;82.03;100426.56;5134628;27;20379;-80
2022/09/11 04:21:55;;;;;;;;;;;;;;;20.01;82.04;100430.34;5134874;27;19918;-81
2022/09/11 04:24:21;;;;;;;;;;;;;;;20.17;81.51;100426.16;5116435;27;19922;-81
2022/09/11 04:26:46;;;;;;;;;;;;;;;20.10;81.42;100422.69;5134602;27;19915;-81
2022/09/11 04:29:11;;;;;;;;;;;;;;;20.17;81.09;100417.13;5116375;27;19922;-82
2022/09/11 04:31:37;;;;;;;;;;;;;;;20.17;81.03;100422.59;5134207;27;19922;-80
2022/09/11 04:34:02;;;;;;;;;;;;;;;20.30;80.29;100427.88;5134581;27;20013;-81
2022/09/11 04:36:28;;;;;;;;;;;;;;;20.34;79.86;100429.06;5134847;27;20326;-81
2022/09/11 04:38:54;;;;;;;;;;;;;;;20.21;80.18;100429.25;5134108;27;20264;-81
2022/09/11 04:41:20;;;;;;;;;;;;;;;20.23;79.85;100424.41;5134583;27;20385;-81
2022/09/11 04:43:45;;;;;;;;;;;;;;;20.27;80.08;100422.88;5134648;27;19912;-82
2022/09/11 04:46:12;;;;;;;;;;;;;;;20.33;79.47;100427.41;5134364;27;20344;-79
2022/09/11 04:48:44;;;;;;;;;;;;;;;20.35;79.00;100429.91;5134423;27;19954;-80
2022/09/11 04:51:09;;;;;;;;;;;;;;;20.35;78.78;100436.22;5134102;27;19968;-82
2022/09/11 04:53:36;;;;;;;;;;;;;;;20.38;78.80;100430.28;5134301;27;19912;-82
2022/09/11 04:56:08;;;;;;;;;;;;;;;20.35;78.47;100430.75;5134080;27;19915;-81
2022/09/11 04:58:33;;;;;;;;;;;;;;;20.39;77.81;100434.69;5115665;27;19963;-81
2022/09/11 05:00:58;;;;;;;;;;;;;;;20.27;78.12;100433.78;5133827;27;20294;-81
2022/09/11 05:03:24;;;;;;;;;;;;;;;20.30;77.74;100438.81;5134034;27;19911;-82
2022/09/11 05:05:49;;;;;;;;;;;;;;;20.20;78.29;100438.50;5134035;27;19918;-80
2022/09/11 05:08:17;;;;;;;;;;;;;;;20.23;78.02;100432.59;5133892;27;19981;-82
2022/09/11 05:10:43;;;;;;;;;;;;;;;20.31;77.91;100435.00;5133916;27;19915;-81
2022/09/11 05:13:08;;;;;;;;;;;;;;;20.28;78.09;100434.63;5115001;27;20366;-80
2022/09/11 05:15:33;;;;;;;;;;;;;;;20.28;78.47;100427.28;5133424;27;19911;-82
2022/09/11 05:17:59;;;;;;;;;;;;;;;20.38;78.13;100424.81;5133986;27;19988;-81
2022/09/11 05:20:24;;;;;;;;;;;;;;;20.47;78.04;100432.69;5133513;27;19921;-82
2022/09/11 05:22:49;;;;;;;;;;;;;;;20.65;77.46;100421.75;5133019;27;19918;-82
2022/09/11 05:25:16;;;;;;;;;;;;;;;20.84;76.06;100422.50;5135060;27;20355;-80
2022/09/11 05:27:41;;;;;;;;;;;;;;;21.28;73.96;100428.47;5133509;27;19965;-81
2022/09/11 05:30:06;;;;;;;;;;;;;;;21.64;72.20;100424.69;5114712;27;20384;-81
2022/09/11 05:32:32;;;;;;;;;;;;;;;21.87;70.34;100426.56;5133145;27;19943;-82
2022/09/11 05:34:58;;;;;;;;;;;;;;;22.29;68.72;100414.56;5133074;27;19911;-80
2022/09/11 05:37:24;;;;;;;;;;;;;;;22.60;67.25;100423.34;5133364;27;19915;-81
2022/09/11 05:39:50;;;;;;;;;;;;;;;22.95;66.01;100417.66;5133123;27;19911;-81
2022/09/11 05:42:16;;;;;;;;;;;;;;;23.20;63.94;100411.78;5133028;27;20006;-81
2022/09/11 05:44:42;;;;;;;;;;;;;;;23.47;62.46;100413.81;5132796;27;20419;-81
2022/09/11 05:47:07;;;;;;;;;;;;;;;23.85;61.51;100412.16;5133345;27;20010;-81
2022/09/11 05:49:33;;;;;;;;;;;;;;;23.66;60.30;100409.69;5114707;27;20307;-81
2022/09/11 05:51:58;;;;;;;;;;;;;;;23.93;60.05;100414.50;5132912;27;19967;-81
2022/09/11 05:54:24;;;;;;;;;;;;;;;23.44;61.01;100412.41;5132856;27;19912;-81
2022/09/11 05:56:49;;;;;;;;;;;;;;;23.44;60.64;100411.59;5133000;27;19919;-81
2022/09/11 05:59:14;;;;;;;;;;;;;;;23.59;60.29;100417.28;5132884;27;19918;-82
2022/09/11 06:01:41;;;;;;;;;;;;;;;24.07;59.25;100413.00;5132991;27;20014;-81
2022/09/11 06:04:10;;;;;;;;;;;;;;;24.29;57.77;100418.47;5133237;27;19911;-81
2022/09/11 06:06:35;;;;;;;;;;;;;;;24.23;57.78;100414.00;5132866;27;19915;-81
2022/09/11 06:09:01;;;;;;;;;;;;;;;24.00;58.59;100417.88;5132664;27;19911;-81
2022/09/11 06:11:26;;;;;;;;;;;;;;;24.07;58.62;100409.41;5132757;27;19919;-81
2022/09/11 06:13:51;;;;;;;;;;;;;;;24.06;59.14;100414.06;5114397;27;19915;-81
2022/09/11 06:16:20;;;;;;;;;;;;;;;23.96;59.32;100408.47;5133163;27;20426;-81
2022/09/11 06:18:48;;;;;;;;;;;;;;;24.08;58.57;100405.59;5132508;27;19954;-82
2022/09/11 06:21:18;;;;;;;;;;;;;;;24.41;57.40;100413.66;5132675;27;19915;-81
2022/09/11 06:23:43;;;;;;;;;;;;;;;24.26;57.94;100407.19;5132890;27;19946;-80
2022/09/11 06:26:11;;;;;;;;;;;;;;;24.33;57.34;100408.63;5132495;27;19954;-82
2022/09/11 06:28:38;;;;;;;;;;;;;;;24.69;56.39;100406.25;5132313;27;19915;-81
2022/09/11 06:31:04;;;;;;;;;;;;;;;24.81;55.99;100403.34;5115099;28;19911;-80
2022/09/11 06:33:30;;;;;;;;;;;;;;;24.63;55.72;100410.03;5135066;27;19959;-81
2022/09/11 06:35:56;;;;;;;;;;;;;;;24.52;55.72;100409.13;5132677;27;19993;-81
2022/09/11 06:38:22;;;;;;;;;;;;;;;24.67;55.51;100413.94;5132400;27;20014;-81
2022/09/11 06:40:47;;;;;;;;;;;;;;;24.33;56.15;100419.63;5132469;27;20409;-80
2022/09/11 06:43:13;;;;;;;;;;;;;;;24.88;55.19;100430.63;5113415;28;19911;-82
2022/09/11 06:45:39;;;;;;;;;;;;;;;25.10;53.12;100416.75;5132623;28;20005;-81
2022/09/11 06:48:05;;;;;;;;;;;;;;;25.44;52.56;100426.38;5115507;28;19911;-80
2022/09/11 06:50:33;;;;;;;;;;;;;;;25.78;51.62;100428.81;5133893;28;20331;-83
2022/09/11 06:52:59;;;;;;;;;;;;;;;26.16;50.20;100423.22;5134737;28;19940;-81
2022/09/11 06:55:26;;;;;;;;;;;;;;;26.46;49.61;100427.97;5133517;28;19911;-81
2022/09/11 06:57:51;;;;;;;;;;;;;;;26.81;48.71;100421.72;5133039;28;19912;-81
2022/09/11 07:00:17;;;;;;;;;;;;;;;27.00;47.56;100423.94;5115243;28;20002;-81
2022/09/11 07:02:42;;;;;;;;;;;;;;;27.32;46.82;100430.00;5132767;28;19915;-81
2022/09/11 07:05:09;;;;;;;;;;;;;;;27.47;46.46;100431.06;5132348;28;20348;-81
2022/09/11 07:07:35;;;;;;;;;;;;;;;27.92;45.29;100424.59;5132690;28;20406;-81
2022/09/11 07:10:03;;;;;;;;;;;;;;;28.13;44.72;100424.53;5097658;28;19950;-82
2022/09/11 07:12:30;;;;;;;;;;;;;;;28.25;44.42;100426.94;5133334;28;20006;-82
2022/09/11 07:14:56;;;;;;;;;;;;;;;28.61;43.79;100428.41;5132737;28;19916;-81
2022/09/11 07:17:21;;;;;;;;;;;;;;;29.18;43.05;100426.06;5132028;28;20363;-81
2022/09/11 07:19:46;;;;;;;;;;;;;;;29.56;41.88;100433.72;5132325;28;19946;-81
2022/09/11 07:22:13;;;;;;;;;;;;;;;29.86;40.21;100427.03;5131749;28;19915;-81
2022/09/11 07:24:39;;;;;;;;;;;;;;;30.31;38.98;100437.84;5131999;28;20379;-81
2022/09/11 07:27:04;;;;;;;;;;;;;;;30.48;37.47;100439.00;5131873;28;19922;-81
2022/09/11 07:29:30;;;;;;;;;;;;;;;30.78;37.25;100445.19;5131908;28;19915;-80
2022/09/11 07:31:56;;;;;;;;;;;;;;;30.97;36.28;100441.59;5131549;28;19960;-82
2022/09/11 07:34:22;;;;;;;;;;;;;;;31.07;36.21;100441.41;5113319;28;19953;-83
2022/09/11 07:36:50;;;;;;;;;;;;;;;30.95;36.23;100447.44;5131673;28;19951;-82
2022/09/11 07:39:15;;;;;;;;;;;;;;;31.13;35.41;100451.31;5132514;28;20298;-81
2022/09/11 07:41:41;;;;;;;;;;;;;;;31.59;34.97;100456.06;5132149;28;19926;-81
2022/09/11 07:44:06;;;;;;;;;;;;;;;31.64;34.89;100458.75;5132233;27;19911;-82
2022/09/11 07:46:31;;;;;;;;;;;;;;;31.61;34.69;100453.81;5135487;27;19912;-82
2022/09/11 07:48:57;;;;;;;;;;;;;;;32.00;33.96;100446.94;5135231;27;19912;-81
2022/09/11 07:51:22;;;;;;;;;;;;;;;32.74;33.40;100451.44;5135227;27;19949;-82
2022/09/11 07:53:49;;;;;;;;;;;;;;;32.45;33.36;100449.88;5135019;27;19917;-81
2022/09/11 07:56:22;;;;;;;;;;;;;;;33.15;31.86;100447.66;5134886;27;20313;-81
2022/09/11 07:58:48;;;;;;;;;;;;;;;33.42;31.56;100447.50;5135423;27;19915;-81
2022/09/11 08:01:14;;;;;;;;;;;;;;;33.95;31.17;100443.00;5134809;27;20493;-81
2022/09/11 08:03:41;;;;;;;;;;;;;;;34.44;30.31;100443.78;5134768;27;20359;-82
2022/09/11 08:06:07;;;;;;;;;;;;;;;34.63;30.18;100448.22;5118842;27;19915;-81
2022/09/11 08:08:33;;;;;;;;;;;;;;;35.48;28.08;100450.44;5142303;27;20025;-81
2022/09/11 08:11:03;;;;;;;;;;;;;;;36.03;27.19;100457.13;5142227;27;20015;-81
2022/09/11 08:13:29;;;;;;;;;;;;;;;36.52;26.60;100447.09;5136029;27;20399;-81
2022/09/11 08:15:55;;;;;;;;;;;;;;;36.58;26.17;100438.50;5134925;27;19911;-82
2022/09/11 08:18:20;;;;;;;;;;;;;;;37.14;25.61;100439.84;5136440;27;20473;-81
2022/09/11 08:20:46;;;;;;;;;;;;;;;37.81;24.97;100448.13;5136992;27;19968;-82
2022/09/11 08:23:11;;;;;;;;;;;;;;;38.10;24.52;100441.50;5134494;27;19911;-82
2022/09/11 08:25:37;;;;;;;;;;;;;;;39.56;22.55;100438.47;5134729;27;19999;-81
2022/09/11 08:28:02;;;;;;;;;;;;;;;40.21;21.92;100440.84;5134439;27;20006;-82
2022/09/11 08:30:28;;;;;;;;;;;;;;;40.14;22.18;100440.69;5134291;27;20039;-81
2022/09/11 08:32:53;;;;;;;;;;;;;;;40.98;20.81;100433.66;5134708;27;20393;-81
2022/09/11 08:35:19;;;;;;;;;;;;;;;41.73;19.95;100431.41;5134413;27;20339;-81
2022/09/11 08:37:44;;;;;;;;;;;;;;;42.11;19.57;100435.22;5133875;27;19919;-81
2022/09/11 08:40:10;;;;;;;;;;;;;;;42.37;19.05;100428.72;5134439;27;19957;-82
2022/09/11 08:42:36;;;;;;;;;;;;;;;41.79;19.95;100417.78;5133848;27;20384;-81
2022/09/11 08:45:02;;;;;;;;;;;;;;;42.42;19.36;100414.28;5133932;27;19933;-82
2022/09/11 08:47:27;;;;;;;;;;;;;;;43.39;17.89;100419.03;5115612;27;20301;-82
2022/09/11 08:50:14;;;;;;;;;;;;;;;42.12;19.10;100409.44;5115345;27;19963;-81
2022/09/11 08:52:40;;;;;;;;;;;;;;;42.15;18.73;100403.03;5133688;27;19919;-82
2022/09/11 08:55:08;;;;;;;;;;;;;;;43.21;18.23;100403.91;5133691;27;19937;-80
2022/09/11 08:57:43;;;;;;;;;;;;;;;41.88;18.76;100402.19;5132549;27;19938;-81
2022/09/11 09:00:11;;;;;;;;;;;;;;;41.77;19.26;100401.22;5133413;27;19914;-80
2022/09/11 09:02:55;;;;;;;;;;;;;;;43.08;17.76;100396.88;5133299;27;19919;-81
2022/09/11 09:05:39;;;;;;;;;;;;;;;43.59;17.21;100401.81;5133544;27;20379;-81
2022/09/11 09:08:23;;;;;;;;;;;;;;;44.45;17.00;100408.06;5133733;27;19934;-81
2022/09/11 09:10:57;;;;;;;;;;;;;;;44.74;16.16;100402.47;5133783;27;20367;-81
2022/09/11 09:13:23;;;;;;;;;;;;;;;45.28;15.51;100386.41;5133281;27;19915;-81
2022/09/11 09:15:51;;;;;;;;;;;;;;;46.63;14.76;100390.19;5133610;27;19934;-82
2022/09/11 09:18:32;;;;;;;;;;;;;;;46.11;15.00;100385.13;5133671;27;19915;-81
2022/09/11 09:21:05;;;;;;;;;;;;;;;46.48;14.43;100389.47;5097485;27;19980;-82
2022/09/11 09:23:32;;;;;;;;;;;;;;;45.70;14.98;100379.91;5114738;27;19919;-82
2022/09/11 09:25:57;;;;;;;;;;;;;;;45.61;14.61;100382.34;5114749;27;19911;-82
2022/09/11 09:28:28;;;;;;;;;;;;;;;46.46;13.88;100368.38;5133060;27;19960;-81
2022/09/11 09:30:56;;;;;;;;;;;;;;;46.77;13.65;100374.31;5116696;27;20010;-81
2022/09/11 09:33:29;;;;;;;;;;;;;;;46.67;13.51;100367.44;5135525;27;19921;-82
2022/09/11 09:35:55;;;;;;;;;;;;;;;46.43;13.51;100374.84;5114619;27;20371;-82
2022/09/11 09:38:21;;;;;;;;;;;;;;;47.27;13.06;100374.75;5114593;27;19918;-82
2022/09/11 09:41:07;;;;;;;;;;;;;;;47.40;12.87;100365.72;5133189;27;19911;-82
2022/09/11 09:43:36;;;;;;;;;;;;;;;48.12;12.19;100380.00;5114183;27;19942;-82
2022/09/11 09:46:04;;;;;;;;;;;;;;;47.76;12.30;100371.88;5133260;27;19998;-82
2022/09/11 09:48:30;;;;;;;;;;;;;;;47.53;12.27;100376.19;5132924;27;19918;-81
2022/09/11 09:50:55;;;;;;;;;;;;;;;45.82;13.45;100367.31;5114242;27;19920;-81
2022/09/11 09:53:26;;;;;;;;;;;;;;;46.95;12.50;100366.47;5132896;27;20355;-81
2022/09/11 09:55:53;;;;;;;;;;;;;;;48.72;11.26;100367.03;5132504;27;19958;-82
2022/09/11 09:58:18;;;;;;;;;;;;;;;49.85;11.13;100359.03;5132827;27;20418;-81
2022/09/11 10:00:44;;;;;;;;;;;;;;;48.62;11.82;100368.03;5112509;28;19955;-81
2022/09/11 10:03:15;;;;;;;;;;;;;;;47.95;11.44;100359.88;5112757;27;20252;-81
2022/09/11 10:05:41;;;;;;;;;;;;;;;47.19;12.32;100369.56;5112628;28;19912;-81
2022/09/11 10:08:25;;;;;;;;;;;;;;;48.27;11.11;100358.69;5110553;28;19915;-81
2022/09/11 10:10:57;;;;;;;;;;;;;;;48.41;11.28;100354.84;5110357;28;20398;-81
2022/09/11 10:13:27;;;;;;;;;;;;;;;49.06;10.63;100346.16;5093210;28;20310;-82
2022/09/11 10:15:53;;;;;;;;;;;;;;;46.92;12.03;100353.06;5110168;28;20314;-82
2022/09/11 10:18:27;;;;;;;;;;;;;;;48.22;10.88;100344.94;5110463;28;19912;-82
2022/09/11 10:20:54;;;;;;;;;;;;;;;49.01;10.54;100343.81;5111968;28;19960;-82
2022/09/11 10:23:22;;;;;;;;;;;;;;;48.42;10.42;100330.78;5109981;28;19911;-82
2022/09/11 10:25:48;;;;;;;;;;;;;;;48.44;10.29;100338.91;5112282;28;19911;-83
2022/09/11 10:28:16;;;;;;;;;;;;;;;49.42;9.93;100334.13;5111839;28;19926;-81
2022/09/11 10:30:44;;;;;;;;;;;;;;;49.90;9.35;100329.16;5110153;28;19922;-81
2022/09/11 10:33:29;;;;;;;;;;;;;;;49.94;9.28;100329.88;5110245;28;19934;-81
2022/09/11 10:35:54;;;;;;;;;;;;;;;51.48;8.65;100332.03;5092952;28;19922;-81
2022/09/11 10:38:21;;;;;;;;;;;;;;;50.40;8.62;100317.50;5110498;28;20010;-81
2022/09/11 10:40:53;;;;;;;;;;;;;;;47.85;10.16;100329.47;5092976;28;19907;-82
2022/09/11 10:43:23;;;;;;;;;;;;;;;48.55;9.95;100316.78;5111607;28;19922;-82
2022/09/11 10:46:01;;;;;;;;;;;;;;;46.30;11.25;100309.94;5110137;28;19916;-82
2022/09/11 10:48:27;;;;;;;;;;;;;;;46.11;11.27;100308.41;5110415;28;20307;-82
2022/09/11 10:51:05;;;;;;;;;;;;;;;44.80;12.33;100294.00;5111240;28;19926;-82
2022/09/11 10:53:32;;;;;;;;;;;;;;;43.37;13.48;100310.31;5111509;28;19912;-82
2022/09/11 10:55:59;;;;;;;;;;;;;;;42.28;13.65;100306.75;5111272;28;20384;-82
2022/09/11 10:58:26;;;;;;;;;;;;;;;41.54;13.82;100311.81;5110048;28;19911;-81
2022/09/11 11:00:51;;;;;;;;;;;;;;;42.34;13.72;100299.56;5109691;28;19938;-81
2022/09/11 11:03:18;;;;;;;;;;;;;;;41.51;14.19;100304.06;5111034;28;20323;-83
2022/09/11 11:05:46;;;;;;;;;;;;;;;40.96;14.27;100306.38;5111191;28;20022;-82
2022/09/11 11:08:30;;;;;;;;;;;;;;;40.37;15.24;100308.50;5111451;28;19985;-81
2022/09/11 11:10:57;;;;;;;;;;;;;;;38.53;16.62;100302.41;5111108;28;19912;-81
2022/09/11 11:13:36;;;;;;;;;;;;;;;38.33;16.98;100307.06;5111046;28;20413;-82
2022/09/11 11:16:21;;;;;;;;;;;;;;;36.91;18.16;100302.13;5111098;28;19912;-82
2022/09/11 11:19:06;;;;;;;;;;;;;;;35.84;19.30;100298.16;5109677;28;20396;-82
2022/09/11 11:21:43;;;;;;;;;;;;;;;35.55;19.77;100302.59;5114995;28;20290;-81
2022/09/11 11:24:16;;;;;;;;;;;;;;;35.12;20.79;100300.00;5115012;28;20002;-81
2022/09/11 11:26:44;;;;;;;;;;;;;;;35.53;20.10;100290.09;5115009;28;20347;-82
2022/09/11 11:29:28;;;;;;;;;;;;;;;35.56;20.13;100286.63;5114859;28;20371;-82
2022/09/11 11:32:02;;;;;;;;;;;;;;;35.82;19.58;100295.69;5114682;28;19916;-82
2022/09/11 11:34:33;;;;;;;;;;;;;;;34.60;20.89;100296.19;5114523;28;20355;-82
2022/09/11 11:37:01;;;;;;;;;;;;;;;35.20;20.44;100302.78;5114476;28;19912;-82
2022/09/11 11:39:35;;;;;;;;;;;;;;;34.93;20.83;100301.19;5113072;28;19919;-82
2022/09/11 11:42:04;;;;;;;;;;;;;;;34.72;20.99;100301.09;5113194;28;20369;-82
2022/09/11 11:44:37;;;;;;;;;;;;;;;35.27;20.34;100297.47;5114543;28;19912;-82
2022/09/11 11:47:03;;;;;;;;;;;;;;;35.03;20.89;100298.06;5113357;28;20020;-82
2022/09/11 11:49:35;;;;;;;;;;;;;;;35.54;20.59;100288.94;5114459;28;20379;-82
2022/09/11 11:52:10;;;;;;;;;;;;;;;35.28;20.29;100289.91;5113770;28;20364;-83
2022/09/11 11:54:37;;;;;;;;;;;;;;;35.04;20.11;100291.28;5114550;28;19912;-82
2022/09/11 11:57:08;;;;;;;;;;;;;;;35.32;19.65;100273.28;5114769;28;19923;-82
2022/09/11 11:59:39;;;;;;;;;;;;;;;35.13;20.17;100284.91;5113331;28;19976;-82
2022/09/11 12:02:07;;;;;;;;;;;;;;;35.25;20.77;100283.03;5129905;27;19964;-81
2022/09/11 12:04:39;;;;;;;;;;;;;;;35.04;21.51;100282.91;5116617;27;19991;-82
2022/09/11 12:07:05;;;;;;;;;;;;;;;34.89;20.50;100275.09;5134666;27;19963;-81
2022/09/11 12:09:30;;;;;;;;;;;;;;;34.78;20.71;100271.03;5116344;27;19919;-82
2022/09/11 12:11:56;;;;;;;;;;;;;;;34.80;20.81;100275.13;5116281;27;19911;-82
2022/09/11 12:14:26;;;;;;;;;;;;;;;34.76;21.26;100265.78;5116060;27;20002;-82
2022/09/11 12:16:51;;;;;;;;;;;;;;;34.82;21.36;100263.63;5134993;27;20018;-82
2022/09/11 12:19:20;;;;;;;;;;;;;;;34.73;21.37;100254.47;5099299;27;19907;-82
2022/09/11 12:21:48;;;;;;;;;;;;;;;34.76;20.93;100262.16;5116546;27;19912;-81
2022/09/11 12:24:14;;;;;;;;;;;;;;;34.65;20.39;100264.50;5134815;27;20402;-81
2022/09/11 12:26:39;;;;;;;;;;;;;;;34.15;21.05;100268.66;5137231;27;19908;-81
2022/09/11 12:29:11;;;;;;;;;;;;;;;34.37;21.31;100269.63;5140176;27;19943;-79
2022/09/11 12:31:49;;;;;;;;;;;;;;;34.07;21.96;100261.09;5117898;27;19911;-82
2022/09/11 12:34:17;;;;;;;;;;;;;;;33.28;23.16;100259.31;5135713;27;20006;-82
2022/09/11 12:36:47;;;;;;;;;;;;;;;33.35;22.98;100252.13;5136242;27;19929;-82
2022/09/11 12:39:17;;;;;;;;;;;;;;;33.12;22.52;100253.38;5136042;27;19972;-82
2022/09/11 12:41:42;;;;;;;;;;;;;;;33.37;22.52;100254.59;5116414;27;20010;-82